sensor_id;sensor_type;location;lat;lon;timestamp;pressure;altitude;pressure_sealevel;temperature;humidity
9899;BME280;4988;49.238;6.698;2022-12-07T00:02:11;99375.09;;;2.39;100.00
9899;BME280;4988;49.238;6.698;2022-12-07T00:04:36;99377.75;;;2.35;100.00
9899;BME280;4988;49.238;6.698;2022-12-07T00:07:01;99376.91;;;2.34;100.00
9899;BME280;4988;49.238;6.698;2022-12-07T00:09:27;99374.28;;;2.33;100.00
9899;BME280;4988;49.238;6.698;2022-12-07T00:11:53;99385.66;;;2.33;100.00
9899;BME280;4988;49.238;6.698;2022-12-07T00:14:18;99379.53;;;2.31;100.00
9899;BME280;4988;49.238;6.698;2022-12-07T00:16:44;99380.44;;;2.32;100.00
9899;BME280;4988;49.238;6.698;2022-12-07T00:19:11;99373.38;;;2.34;100.00
9899;BME280;4988;49.238;6.698;2022-12-07T00:21:37;99366.38;;;2.33;100.00
9899;BME280;4988;49.238;6.698;2022-12-07T00:24:04;99369.00;;;2.33;100.00
9899;BME280;4988;49.238;6.698;2022-12-07T00:26:32;99363.69;;;2.42;100.00
9899;BME280;4988;49.238;6.698;2022-12-07T00:29:00;99360.16;;;2.45;100.00
9899;BME280;4988;49.238;6.698;2022-12-07T00:31:27;99364.56;;;2.44;100.00
9899;BME280;4988;49.238;6.698;2022-12-07T00:33:53;99360.13;;;2.49;100.00
9899;BME280;4988;49.238;6.698;2022-12-07T00:36:21;99340.03;;;2.44;100.00
9899;BME280;4988;49.238;6.698;2022-12-07T00:38:47;99342.69;;;2.42;100.00
9899;BME280;4988;49.238;6.698;2022-12-07T00:41:17;99337.44;;;2.39;100.00
9899;BME280;4988;49.238;6.698;2022-12-07T00:43:44;99333.94;;;2.38;100.00
9899;BME280;4988;49.238;6.698;2022-12-07T00:46:11;99331.34;;;2.37;100.00
9899;BME280;4988;49.238;6.698;2022-12-07T00:48:37;99333.13;;;2.33;100.00
9899;BME280;4988;49.238;6.698;2022-12-07T00:51:03;99338.41;;;2.29;100.00
9899;BME280;4988;49.238;6.698;2022-12-07T00:53:28;99348.06;;;2.27;100.00
9899;BME280;4988;49.238;6.698;2022-12-07T00:55:54;99351.59;;;2.22;100.00
9899;BME280;4988;49.238;6.698;2022-12-07T00:58:21;99356.91;;;2.16;100.00
9899;BME280;4988;49.238;6.698;2022-12-07T01:00:46;99358.69;;;2.14;100.00
9899;BME280;4988;49.238;6.698;2022-12-07T01:03:13;99360.38;;;2.21;100.00
9899;BME280;4988;49.238;6.698;2022-12-07T01:05:39;99356.06;;;2.16;100.00
9899;BME280;4988;49.238;6.698;2022-12-07T01:08:05;99353.47;;;2.09;100.00
9899;BME280;4988;49.238;6.698;2022-12-07T01:10:30;99369.28;;;2.05;100.00
9899;BME280;4988;49.238;6.698;2022-12-07T01:12:57;99363.16;;;1.98;100.00
9899;BME280;4988;49.238;6.698;2022-12-07T01:15:23;99359.75;;;1.90;100.00
9899;BME280;4988;49.238;6.698;2022-12-07T01:17:49;99358.03;;;1.87;100.00
9899;BME280;4988;49.238;6.698;2022-12-07T01:20:14;99350.16;;;1.86;100.00
9899;BME280;4988;49.238;6.698;2022-12-07T01:22:41;99352.78;;;1.87;100.00
9899;BME280;4988;49.238;6.698;2022-12-07T01:25:08;99357.13;;;1.88;100.00
9899;BME280;4988;49.238;6.698;2022-12-07T01:27:34;99357.16;;;1.85;100.00
9899;BME280;4988;49.238;6.698;2022-12-07T01:30:00;99358.91;;;1.86;100.00
9899;BME280;4988;49.238;6.698;2022-12-07T01:32:26;99357.13;;;1.87;100.00
9899;BME280;4988;49.238;6.698;2022-12-07T01:34:52;99359.75;;;1.91;100.00
9899;BME280;4988;49.238;6.698;2022-12-07T01:37:17;99357.13;;;1.91;100.00
9899;BME280;4988;49.238;6.698;2022-12-07T01:39:43;99358.81;;;1.96;100.00
9899;BME280;4988;49.238;6.698;2022-12-07T01:42:11;99357.03;;;2.04;100.00
9899;BME280;4988;49.238;6.698;2022-12-07T01:47:41;99366.56;;;2.16;100.00
9899;BME280;4988;49.238;6.698;2022-12-07T01:50:08;99366.50;;;2.20;100.00
9899;BME280;4988;49.238;6.698;2022-12-07T01:52:34;99360.34;;;2.24;100.00
9899;BME280;4988;49.238;6.698;2022-12-07T01:55:07;99352.38;;;2.35;100.00
9899;BME280;4988;49.238;6.698;2022-12-07T01:57:36;99353.31;;;2.28;100.00
9899;BME280;4988;49.238;6.698;2022-12-07T02:00:04;99347.16;;;2.32;100.00
9899;BME280;4988;49.238;6.698;2022-12-07T02:02:36;99348.00;;;2.33;100.00
9899;BME280;4988;49.238;6.698;2022-12-07T02:05:04;99353.16;;;2.47;100.00
9899;BME280;4988;49.238;6.698;2022-12-07T02:07:32;99347.06;;;2.43;100.00
9899;BME280;4988;49.238;6.698;2022-12-07T02:10:20;99352.44;;;2.29;100.00
9899;BME280;4988;49.238;6.698;2022-12-07T02:12:49;99341.16;;;2.19;100.00
9899;BME280;4988;49.238;6.698;2022-12-07T02:15:16;99345.50;;;2.20;100.00
9899;BME280;4988;49.238;6.698;2022-12-07T02:26:29;99329.00;;;2.06;100.00
9899;BME280;4988;49.238;6.698;2022-12-07T02:29:24;99333.41;;;2.02;100.00
9899;BME280;4988;49.238;6.698;2022-12-07T02:37:03;99325.59;;;1.93;100.00
9899;BME280;4988;49.238;6.698;2022-12-07T02:39:41;99325.56;;;1.95;100.00
9899;BME280;4988;49.238;6.698;2022-12-07T02:42:23;99321.22;;;1.93;100.00
9899;BME280;4988;49.238;6.698;2022-12-07T02:44:50;99321.22;;;1.95;100.00
9899;BME280;4988;49.238;6.698;2022-12-07T02:47:18;99322.13;;;1.92;100.00
9899;BME280;4988;49.238;6.698;2022-12-07T02:49:45;99314.25;;;1.92;100.00
9899;BME280;4988;49.238;6.698;2022-12-07T02:52:11;99315.97;;;1.93;100.00
9899;BME280;4988;49.238;6.698;2022-12-07T02:54:36;99319.47;;;1.94;100.00
9899;BME280;4988;49.238;6.698;2022-12-07T03:00:14;99310.69;;;1.97;100.00
9899;BME280;4988;49.238;6.698;2022-12-07T03:08:07;99308.06;;;1.97;100.00
9899;BME280;4988;49.238;6.698;2022-12-07T03:10:48;99305.41;;;2.01;100.00
9899;BME280;4988;49.238;6.698;2022-12-07T03:15:55;99292.19;;;2.11;100.00
9899;BME280;4988;49.238;6.698;2022-12-07T03:18:24;99298.22;;;2.20;100.00
9899;BME280;4988;49.238;6.698;2022-12-07T03:20:53;99299.88;;;2.31;100.00
9899;BME280;4988;49.238;6.698;2022-12-07T03:23:23;99300.69;;;2.37;100.00
9899;BME280;4988;49.238;6.698;2022-12-07T03:25:53;99298.84;;;2.46;100.00
9899;BME280;4988;49.238;6.698;2022-12-07T03:28:23;99297.94;;;2.51;100.00
9899;BME280;4988;49.238;6.698;2022-12-07T03:30:57;99298.69;;;2.60;100.00
9899;BME280;4988;49.238;6.698;2022-12-07T03:39:36;99303.94;;;2.63;100.00
9899;BME280;4988;49.238;6.698;2022-12-07T03:42:05;99295.91;;;2.75;100.00
9899;BME280;4988;49.238;6.698;2022-12-07T03:44:34;99294.06;;;2.83;100.00
9899;BME280;4988;49.238;6.698;2022-12-07T03:47:04;99297.56;;;2.82;100.00
9899;BME280;4988;49.238;6.698;2022-12-07T03:52:18;99291.44;;;2.83;100.00
9899;BME280;4988;49.238;6.698;2022-12-07T03:57:18;99296.25;;;2.44;100.00
9899;BME280;4988;49.238;6.698;2022-12-07T03:59:45;99300.72;;;2.33;100.00
9899;BME280;4988;49.238;6.698;2022-12-07T04:02:12;99299.09;;;2.22;100.00
9899;BME280;4988;49.238;6.698;2022-12-07T04:04:38;99300.00;;;2.17;100.00
9899;BME280;4988;49.238;6.698;2022-12-07T04:07:04;99302.69;;;2.11;100.00
9899;BME280;4988;49.238;6.698;2022-12-07T04:09:29;99298.41;;;2.03;100.00
9899;BME280;4988;49.238;6.698;2022-12-07T04:11:55;99302.75;;;2.06;100.00
9899;BME280;4988;49.238;6.698;2022-12-07T04:14:20;99299.28;;;1.99;100.00
9899;BME280;4988;49.238;6.698;2022-12-07T04:19:11;99307.16;;;2.02;100.00
9899;BME280;4988;49.238;6.698;2022-12-07T04:21:36;99293.88;;;2.16;100.00
9899;BME280;4988;49.238;6.698;2022-12-07T04:24:01;99293.88;;;2.16;100.00
9899;BME280;4988;49.238;6.698;2022-12-07T04:26:27;99296.47;;;2.21;100.00
9899;BME280;4988;49.238;6.698;2022-12-07T04:28:52;99293.81;;;2.24;100.00
9899;BME280;4988;49.238;6.698;2022-12-07T04:31:17;99299.09;;;2.22;100.00
9899;BME280;4988;49.238;6.698;2022-12-07T04:33:43;99287.63;;;2.31;100.00
9899;BME280;4988;49.238;6.698;2022-12-07T04:36:08;99285.06;;;2.23;100.00
9899;BME280;4988;49.238;6.698;2022-12-07T04:38:33;99285.75;;;2.41;100.00
9899;BME280;4988;49.238;6.698;2022-12-07T04:41:04;99282.19;;;2.48;100.00
9899;BME280;4988;49.238;6.698;2022-12-07T04:43:29;99284.72;;;2.57;100.00
9899;BME280;4988;49.238;6.698;2022-12-07T04:45:55;99283.00;;;2.53;100.00
9899;BME280;4988;49.238;6.698;2022-12-07T04:48:20;99281.41;;;2.41;100.00
9899;BME280;4988;49.238;6.698;2022-12-07T04:50:48;99275.38;;;2.29;100.00
9899;BME280;4988;49.238;6.698;2022-12-07T04:53:14;99284.22;;;2.21;100.00
9899;BME280;4988;49.238;6.698;2022-12-07T04:55:40;99282.53;;;2.14;100.00
9899;BME280;4988;49.238;6.698;2022-12-07T04:58:05;99285.22;;;2.08;100.00
9899;BME280;4988;49.238;6.698;2022-12-07T05:00:30;99286.13;;;2.04;100.00
9899;BME280;4988;49.238;6.698;2022-12-07T05:02:55;99280.00;;;2.02;100.00
9899;BME280;4988;49.238;6.698;2022-12-07T05:05:21;99278.25;;;2.01;100.00
9899;BME280;4988;49.238;6.698;2022-12-07T05:07:46;99278.28;;;2.02;100.00
9899;BME280;4988;49.238;6.698;2022-12-07T05:10:11;99272.09;;;2.06;100.00
9899;BME280;4988;49.238;6.698;2022-12-07T05:12:37;99272.94;;;2.10;100.00
9899;BME280;4988;49.238;6.698;2022-12-07T05:15:02;99272.94;;;2.10;100.00
9899;BME280;4988;49.238;6.698;2022-12-07T05:17:28;99272.03;;;2.16;100.00
9899;BME280;4988;49.238;6.698;2022-12-07T05:19:53;99281.53;;;2.28;100.00
9899;BME280;4988;49.238;6.698;2022-12-07T05:22:18;99282.28;;;2.37;100.00
9899;BME280;4988;49.238;6.698;2022-12-07T05:24:44;99273.50;;;2.40;100.00
9899;BME280;4988;49.238;6.698;2022-12-07T05:27:09;99278.69;;;2.48;100.00
9899;BME280;4988;49.238;6.698;2022-12-07T05:29:34;99283.13;;;2.44;100.00
9899;BME280;4988;49.238;6.698;2022-12-07T05:32:00;99272.53;;;2.50;100.00
9899;BME280;4988;49.238;6.698;2022-12-07T05:34:25;99283.06;;;2.50;100.00
9899;BME280;4988;49.238;6.698;2022-12-07T05:36:50;99273.28;;;2.62;100.00
9899;BME280;4988;49.238;6.698;2022-12-07T05:39:16;99268.88;;;2.64;100.00
9899;BME280;4988;49.238;6.698;2022-12-07T05:41:41;99267.06;;;2.69;100.00
9899;BME280;4988;49.238;6.698;2022-12-07T05:44:25;99268.66;;;2.82;100.00
9899;BME280;4988;49.238;6.698;2022-12-07T05:46:51;99266.88;;;2.86;100.00
9899;BME280;4988;49.238;6.698;2022-12-07T05:49:16;99267.06;;;2.69;100.00
9899;BME280;4988;49.238;6.698;2022-12-07T05:51:41;99264.50;;;2.63;100.00
9899;BME280;4988;49.238;6.698;2022-12-07T05:54:07;99266.22;;;2.67;100.00
9899;BME280;4988;49.238;6.698;2022-12-07T05:56:32;99267.81;;;2.79;100.00
9899;BME280;4988;49.238;6.698;2022-12-07T05:58:57;99268.81;;;2.68;100.00
9899;BME280;4988;49.238;6.698;2022-12-07T06:01:41;99267.16;;;2.60;100.00
9899;BME280;4988;49.238;6.698;2022-12-07T06:04:07;99269.03;;;2.48;100.00
9899;BME280;4988;49.238;6.698;2022-12-07T06:06:32;99263.03;;;2.38;100.00
9899;BME280;4988;49.238;6.698;2022-12-07T06:09:00;99268.31;;;2.35;100.00
9899;BME280;4988;49.238;6.698;2022-12-07T06:11:29;99271.84;;;2.31;100.00
9899;BME280;4988;49.238;6.698;2022-12-07T06:14:12;99269.22;;;2.31;100.00
9899;BME280;4988;49.238;6.698;2022-12-07T06:16:38;99276.19;;;2.37;100.00
9899;BME280;4988;49.238;6.698;2022-12-07T06:19:03;99273.50;;;2.40;100.00
9899;BME280;4988;49.238;6.698;2022-12-07T06:21:29;99269.19;;;2.36;100.00
9899;BME280;4988;49.238;6.698;2022-12-07T06:23:54;99276.19;;;2.34;100.00
9899;BME280;4988;49.238;6.698;2022-12-07T06:26:20;99271.78;;;2.37;100.00
9899;BME280;4988;49.238;6.698;2022-12-07T06:28:45;99277.94;;;2.38;100.00
9899;BME280;4988;49.238;6.698;2022-12-07T06:31:11;99280.56;;;2.36;100.00
9899;BME280;4988;49.238;6.698;2022-12-07T06:33:36;99288.44;;;2.35;100.00
9899;BME280;4988;49.238;6.698;2022-12-07T06:36:01;99284.84;;;2.44;100.00
9899;BME280;4988;49.238;6.698;2022-12-07T06:38:27;99285.78;;;2.39;100.00
9899;BME280;4988;49.238;6.698;2022-12-07T06:40:52;99282.31;;;2.36;100.00
9899;BME280;4988;49.238;6.698;2022-12-07T06:43:17;99280.59;;;2.33;100.00
9899;BME280;4988;49.238;6.698;2022-12-07T06:45:43;99273.56;;;2.37;100.00
9899;BME280;4988;49.238;6.698;2022-12-07T06:48:08;99279.66;;;2.40;100.00
9899;BME280;4988;49.238;6.698;2022-12-07T06:50:33;99279.56;;;2.45;100.00
9899;BME280;4988;49.238;6.698;2022-12-07T06:52:59;99287.47;;;2.45;100.00
9899;BME280;4988;49.238;6.698;2022-12-07T06:55:24;99283.91;;;2.51;100.00
9899;BME280;4988;49.238;6.698;2022-12-07T06:57:49;99281.19;;;2.58;100.00
9899;BME280;4988;49.238;6.698;2022-12-07T07:00:15;99282.06;;;2.59;100.00
9899;BME280;4988;49.238;6.698;2022-12-07T07:02:41;99283.91;;;2.51;100.00
9899;BME280;4988;49.238;6.698;2022-12-07T07:05:06;99280.41;;;2.50;100.00
9899;BME280;4988;49.238;6.698;2022-12-07T07:07:32;99276.94;;;2.48;100.00
9899;BME280;4988;49.238;6.698;2022-12-07T07:09:57;99277.81;;;2.47;100.00
9899;BME280;4988;49.238;6.698;2022-12-07T07:12:23;99279.56;;;2.45;100.00
9899;BME280;4988;49.238;6.698;2022-12-07T07:14:48;99286.66;;;2.41;100.00
9899;BME280;4988;49.238;6.698;2022-12-07T07:17:13;99280.53;;;2.39;100.00
9899;BME280;4988;49.238;6.698;2022-12-07T07:19:38;99288.38;;;2.42;100.00
9899;BME280;4988;49.238;6.698;2022-12-07T07:22:04;99292.75;;;2.42;100.00
9899;BME280;4988;49.238;6.698;2022-12-07T07:24:29;99300.66;;;2.39;100.00
9899;BME280;4988;49.238;6.698;2022-12-07T07:26:55;99298.00;;;2.42;100.00
9899;BME280;4988;49.238;6.698;2022-12-07T07:29:20;99290.13;;;2.42;100.00
9899;BME280;4988;49.238;6.698;2022-12-07T07:31:46;99305.00;;;2.45;100.00
9899;BME280;4988;49.238;6.698;2022-12-07T07:34:11;99302.38;;;2.43;100.00
9899;BME280;4988;49.238;6.698;2022-12-07T07:36:36;99310.28;;;2.43;100.00
9899;BME280;4988;49.238;6.698;2022-12-07T07:39:02;99308.53;;;2.42;100.00
9899;BME280;4988;49.238;6.698;2022-12-07T07:41:27;99303.28;;;2.42;100.00
9899;BME280;4988;49.238;6.698;2022-12-07T07:43:53;99305.00;;;2.43;100.00
9899;BME280;4988;49.238;6.698;2022-12-07T07:46:18;99306.75;;;2.44;100.00
9899;BME280;4988;49.238;6.698;2022-12-07T07:48:43;99312.00;;;2.44;100.00
9899;BME280;4988;49.238;6.698;2022-12-07T07:51:09;99307.63;;;2.45;100.00
9899;BME280;4988;49.238;6.698;2022-12-07T07:53:34;99312.91;;;2.43;100.00
9899;BME280;4988;49.238;6.698;2022-12-07T07:55:59;99307.66;;;2.43;100.00
9899;BME280;4988;49.238;6.698;2022-12-07T07:58:25;99312.91;;;2.43;100.00
9899;BME280;4988;49.238;6.698;2022-12-07T08:00:50;99305.91;;;2.42;100.00
9899;BME280;4988;49.238;6.698;2022-12-07T08:03:16;99309.38;;;2.44;100.00
9899;BME280;4988;49.238;6.698;2022-12-07T08:05:41;99306.75;;;2.46;100.00
9899;BME280;4988;49.238;6.698;2022-12-07T08:08:07;99316.34;;;2.48;100.00
9899;BME280;4988;49.238;6.698;2022-12-07T08:10:32;99317.22;;;2.50;100.00
9899;BME280;4988;49.238;6.698;2022-12-07T08:12:58;99323.28;;;2.52;100.00
9899;BME280;4988;49.238;6.698;2022-12-07T08:15:37;99318.03;;;2.55;100.00
9899;BME280;4988;49.238;6.698;2022-12-07T08:18:02;99319.78;;;2.56;100.00
9899;BME280;4988;49.238;6.698;2022-12-07T08:20:30;99319.69;;;2.61;100.00
9899;BME280;4988;49.238;6.698;2022-12-07T08:22:55;99313.56;;;2.62;100.00
9899;BME280;4988;49.238;6.698;2022-12-07T08:25:21;99326.69;;;2.64;100.00
9899;BME280;4988;49.238;6.698;2022-12-07T08:27:50;99321.41;;;2.67;100.00
9899;BME280;4988;49.238;6.698;2022-12-07T08:30:16;99315.28;;;2.66;100.00
9899;BME280;4988;49.238;6.698;2022-12-07T08:32:42;99324.00;;;2.68;100.00
9899;BME280;4988;49.238;6.698;2022-12-07T08:35:09;99323.09;;;2.71;100.00
9899;BME280;4988;49.238;6.698;2022-12-07T08:37:35;99326.56;;;2.76;100.00
9899;BME280;4988;49.238;6.698;2022-12-07T08:40:00;99320.47;;;2.72;100.00
9899;BME280;4988;49.238;6.698;2022-12-07T08:42:26;99333.59;;;2.74;100.00
9899;BME280;4988;49.238;6.698;2022-12-07T08:44:57;99329.97;;;2.86;100.00
9899;BME280;4988;49.238;6.698;2022-12-07T08:47:23;99336.94;;;2.88;100.00
9899;BME280;4988;49.238;6.698;2022-12-07T08:49:50;99336.97;;;2.85;100.00
9899;BME280;4988;49.238;6.698;2022-12-07T08:52:17;99332.53;;;2.89;100.00
9899;BME280;4988;49.238;6.698;2022-12-07T08:54:43;99334.28;;;2.90;100.00
9899;BME280;4988;49.238;6.698;2022-12-07T08:57:10;99336.06;;;2.89;100.00
9899;BME280;4988;49.238;6.698;2022-12-07T08:59:37;99343.00;;;2.94;100.00
9899;BME280;4988;49.238;6.698;2022-12-07T09:02:03;99346.53;;;2.91;100.00
9899;BME280;4988;49.238;6.698;2022-12-07T09:04:29;99344.81;;;2.90;100.00
9899;BME280;4988;49.238;6.698;2022-12-07T09:06:55;99340.41;;;2.90;100.00
9899;BME280;4988;49.238;6.698;2022-12-07T09:09:20;99339.53;;;2.90;100.00
9899;BME280;4988;49.238;6.698;2022-12-07T09:11:46;99335.13;;;2.94;100.00
9899;BME280;4988;49.238;6.698;2022-12-07T09:14:12;99335.97;;;2.94;100.00
9899;BME280;4988;49.238;6.698;2022-12-07T09:16:37;99340.38;;;2.94;100.00
9899;BME280;4988;49.238;6.698;2022-12-07T09:19:03;99341.19;;;2.99;100.00
9899;BME280;4988;49.238;6.698;2022-12-07T09:21:28;99342.00;;;3.04;100.00
9899;BME280;4988;49.238;6.698;2022-12-07T09:23:54;99337.53;;;3.12;100.00
9899;BME280;4988;49.238;6.698;2022-12-07T09:26:19;99340.09;;;3.15;100.00
9899;BME280;4988;49.238;6.698;2022-12-07T09:28:44;99342.66;;;3.23;100.00
9899;BME280;4988;49.238;6.698;2022-12-07T09:31:10;99342.56;;;3.29;100.00
9899;BME280;4988;49.238;6.698;2022-12-07T09:33:35;99335.59;;;3.27;100.00
9899;BME280;4988;49.238;6.698;2022-12-07T09:36:00;99340.84;;;3.27;100.00
9899;BME280;4988;49.238;6.698;2022-12-07T09:38:26;99329.34;;;3.34;100.00
9899;BME280;4988;49.238;6.698;2022-12-07T09:40:52;99331.13;;;3.32;100.00
9899;BME280;4988;49.238;6.698;2022-12-07T09:43:22;99331.13;;;3.32;100.00
9899;BME280;4988;49.238;6.698;2022-12-07T09:45:51;99328.47;;;3.33;100.00
9899;BME280;4988;49.238;6.698;2022-12-07T09:48:21;99324.13;;;3.31;100.00
9899;BME280;4988;49.238;6.698;2022-12-07T09:50:48;99325.78;;;3.38;100.00
9899;BME280;4988;49.238;6.698;2022-12-07T09:53:23;99321.44;;;3.35;100.00
9899;BME280;4988;49.238;6.698;2022-12-07T09:55:49;99324.91;;;3.39;100.00
9899;BME280;4988;49.238;6.698;2022-12-07T09:58:23;99322.22;;;3.42;100.00
9899;BME280;4988;49.238;6.698;2022-12-07T10:00:53;99323.00;;;3.49;100.00
9899;BME280;4988;49.238;6.698;2022-12-07T10:03:20;99327.34;;;3.51;100.00
9899;BME280;4988;49.238;6.698;2022-12-07T10:05:48;99315.97;;;3.49;100.00
9899;BME280;4988;49.238;6.698;2022-12-07T10:08:14;99316.81;;;3.51;100.00
9899;BME280;4988;49.238;6.698;2022-12-07T10:10:42;99310.63;;;3.56;100.00
9899;BME280;4988;49.238;6.698;2022-12-07T10:13:17;99307.88;;;3.62;100.00
9899;BME280;4988;49.238;6.698;2022-12-07T10:15:54;99306.97;;;3.66;100.00
9899;BME280;4988;49.238;6.698;2022-12-07T10:18:35;99311.41;;;3.62;100.00
9899;BME280;4988;49.238;6.698;2022-12-07T10:21:36;99304.31;;;3.67;100.00
9899;BME280;4988;49.238;6.698;2022-12-07T10:26:38;99300.78;;;3.67;100.00
9899;BME280;4988;49.238;6.698;2022-12-07T10:31:39;99291.09;;;3.70;100.00
9899;BME280;4988;49.238;6.698;2022-12-07T10:34:36;99285.03;;;3.65;100.00
9899;BME280;4988;49.238;6.698;2022-12-07T10:39:50;99282.25;;;3.73;100.00
9899;BME280;4988;49.238;6.698;2022-12-07T10:42:20;99279.72;;;3.68;100.00
9899;BME280;4988;49.238;6.698;2022-12-07T10:44:47;99279.78;;;3.64;100.00
9899;BME280;4988;49.238;6.698;2022-12-07T10:50:24;99284.81;;;3.78;100.00
9899;BME280;4988;49.238;6.698;2022-12-07T11:00:49;99267.94;;;3.91;100.00
9899;BME280;4988;49.238;6.698;2022-12-07T11:03:37;99261.88;;;3.86;100.00
9899;BME280;4988;49.238;6.698;2022-12-07T11:06:23;99254.84;;;3.86;100.00
9899;BME280;4988;49.238;6.698;2022-12-07T11:11:23;99243.00;;;4.11;100.00
9899;BME280;4988;49.238;6.698;2022-12-07T11:21:58;99243.38;;;3.91;100.00
9899;BME280;4988;49.238;6.698;2022-12-07T11:27:33;99237.16;;;3.95;100.00
9899;BME280;4988;49.238;6.698;2022-12-07T11:30:08;99228.31;;;3.97;100.00
9899;BME280;4988;49.238;6.698;2022-12-07T11:38:08;99231.47;;;4.18;97.15
9899;BME280;4988;49.238;6.698;2022-12-07T11:40:36;99227.91;;;4.21;97.61
9899;BME280;4988;49.238;6.698;2022-12-07T11:43:20;99222.56;;;4.24;98.15
9899;BME280;4988;49.238;6.698;2022-12-07T11:45:54;99214.66;;;4.25;97.65
9899;BME280;4988;49.238;6.698;2022-12-07T11:51:10;99211.56;;;4.47;96.72
9899;BME280;4988;49.238;6.698;2022-12-07T11:53:51;99207.19;;;4.47;96.31
9899;BME280;4988;49.238;6.698;2022-12-07T11:56:21;99208.25;;;4.37;97.60
9899;BME280;4988;49.238;6.698;2022-12-07T11:58:49;99207.44;;;4.35;98.46
9899;BME280;4988;49.238;6.698;2022-12-07T12:06:40;99195.88;;;4.42;98.72
9899;BME280;4988;49.238;6.698;2022-12-07T12:09:13;99191.59;;;4.37;98.32
9899;BME280;4988;49.238;6.698;2022-12-07T12:20:00;99194.38;;;4.27;98.48
9899;BME280;4988;49.238;6.698;2022-12-07T12:22:36;99194.38;;;4.27;99.21
9899;BME280;4988;49.238;6.698;2022-12-07T12:25:05;99196.13;;;4.28;99.58
9899;BME280;4988;49.238;6.698;2022-12-07T12:27:37;99197.97;;;4.25;98.98
9899;BME280;4988;49.238;6.698;2022-12-07T12:30:06;99186.56;;;4.24;98.75
9899;BME280;4988;49.238;6.698;2022-12-07T12:32:39;99195.31;;;4.26;100.00
9899;BME280;4988;49.238;6.698;2022-12-07T12:35:29;99190.13;;;4.22;100.00
9899;BME280;4988;49.238;6.698;2022-12-07T12:40:41;99185.75;;;4.21;100.00
9899;BME280;4988;49.238;6.698;2022-12-07T12:51:42;99172.13;;;4.44;100.00
9899;BME280;4988;49.238;6.698;2022-12-07T12:54:24;99168.63;;;4.42;100.00
9899;BME280;4988;49.238;6.698;2022-12-07T12:57:12;99176.38;;;4.49;100.00
9899;BME280;4988;49.238;6.698;2022-12-07T12:59:56;99169.44;;;4.45;100.00
9899;BME280;4988;49.238;6.698;2022-12-07T13:15:32;99150.28;;;4.37;100.00
9899;BME280;4988;49.238;6.698;2022-12-07T13:18:01;99152.91;;;4.37;99.95
9899;BME280;4988;49.238;6.698;2022-12-07T13:20:51;99151.22;;;4.34;100.00
9899;BME280;4988;49.238;6.698;2022-12-07T13:23:19;99138.94;;;4.33;99.83
9899;BME280;4988;49.238;6.698;2022-12-07T13:28:36;99139.94;;;4.28;99.77
9899;BME280;4988;49.238;6.698;2022-12-07T13:33:38;99141.72;;;4.26;99.24
9899;BME280;4988;49.238;6.698;2022-12-07T13:36:04;99136.50;;;4.24;99.64
9899;BME280;4988;49.238;6.698;2022-12-07T13:38:37;99132.97;;;4.24;99.83
9899;BME280;4988;49.238;6.698;2022-12-07T13:43:54;99138.06;;;4.33;100.00
9899;BME280;4988;49.238;6.698;2022-12-07T13:46:45;99131.69;;;4.45;99.55
9899;BME280;4988;49.238;6.698;2022-12-07T13:49:25;99132.41;;;4.51;98.63
9899;BME280;4988;49.238;6.698;2022-12-07T13:51:52;99132.16;;;4.64;98.36
9899;BME280;4988;49.238;6.698;2022-12-07T13:54:19;99129.59;;;4.61;98.12
9899;BME280;4988;49.238;6.698;2022-12-07T13:56:49;99127.84;;;4.60;98.67
9899;BME280;4988;49.238;6.698;2022-12-07T13:59:25;99125.34;;;4.52;98.80
9899;BME280;4988;49.238;6.698;2022-12-07T14:01:53;99128.09;;;4.49;98.92
9899;BME280;4988;49.238;6.698;2022-12-07T14:06:51;99124.72;;;4.41;100.00
9899;BME280;4988;49.238;6.698;2022-12-07T14:09:22;99125.66;;;4.38;99.46
9899;BME280;4988;49.238;6.698;2022-12-07T14:11:49;99127.50;;;4.34;99.23
9899;BME280;4988;49.238;6.698;2022-12-07T14:14:21;99120.47;;;4.35;100.00
9899;BME280;4988;49.238;6.698;2022-12-07T14:17:02;99122.03;;;4.44;100.00
9899;BME280;4988;49.238;6.698;2022-12-07T14:20:00;99118.47;;;4.46;100.00
9899;BME280;4988;49.238;6.698;2022-12-07T14:22:34;99119.44;;;4.42;99.91
9899;BME280;4988;49.238;6.698;2022-12-07T14:25:19;99110.75;;;4.39;100.00
9899;BME280;4988;49.238;6.698;2022-12-07T14:28:00;99116.81;;;4.42;100.00
9899;BME280;4988;49.238;6.698;2022-12-07T14:30:31;99111.63;;;4.38;100.00
9899;BME280;4988;49.238;6.698;2022-12-07T14:32:59;99097.44;;;4.43;100.00
9899;BME280;4988;49.238;6.698;2022-12-07T14:35:26;99105.97;;;4.56;100.00
9899;BME280;4988;49.238;6.698;2022-12-07T14:37:52;99098.53;;;4.74;100.00
9899;BME280;4988;49.238;6.698;2022-12-07T14:40:20;99096.69;;;4.77;100.00
9899;BME280;4988;49.238;6.698;2022-12-07T14:42:47;99100.22;;;4.76;99.67
9899;BME280;4988;49.238;6.698;2022-12-07T14:45:20;99100.31;;;4.72;99.45
9899;BME280;4988;49.238;6.698;2022-12-07T14:47:46;99102.25;;;4.65;100.00
9899;BME280;4988;49.238;6.698;2022-12-07T14:50:13;99098.91;;;4.57;100.00
9899;BME280;4988;49.238;6.698;2022-12-07T14:52:40;99101.44;;;4.61;100.00
9899;BME280;4988;49.238;6.698;2022-12-07T14:55:32;99096.25;;;4.58;100.00
9899;BME280;4988;49.238;6.698;2022-12-07T14:57:58;99097.13;;;4.59;100.00
9899;BME280;4988;49.238;6.698;2022-12-07T15:00:25;99100.44;;;4.67;100.00
9899;BME280;4988;49.238;6.698;2022-12-07T15:02:51;99088.25;;;4.61;100.00
9899;BME280;4988;49.238;6.698;2022-12-07T15:05:17;99100.75;;;4.53;100.00
9899;BME280;4988;49.238;6.698;2022-12-07T15:07:43;99088.59;;;4.47;100.00
9899;BME280;4988;49.238;6.698;2022-12-07T15:10:24;99102.53;;;4.53;100.00
9899;BME280;4988;49.238;6.698;2022-12-07T15:12:54;99092.78;;;4.56;100.00
9899;BME280;4988;49.238;6.698;2022-12-07T15:15:20;99092.03;;;4.49;100.00
9899;BME280;4988;49.238;6.698;2022-12-07T15:17:45;99093.19;;;4.38;100.00
9899;BME280;4988;49.238;6.698;2022-12-07T15:20:14;99089.81;;;4.31;100.00
9899;BME280;4988;49.238;6.698;2022-12-07T15:22:41;99089.97;;;4.23;100.00
9899;BME280;4988;49.238;6.698;2022-12-07T15:25:08;99099.78;;;4.16;100.00
9899;BME280;4988;49.238;6.698;2022-12-07T15:27:33;99095.53;;;4.08;100.00
9899;BME280;4988;49.238;6.698;2022-12-07T15:29:58;99093.84;;;4.07;100.00
9899;BME280;4988;49.238;6.698;2022-12-07T15:32:24;99093.84;;;4.05;100.00
9899;BME280;4988;49.238;6.698;2022-12-07T15:34:49;99097.41;;;4.02;100.00
9899;BME280;4988;49.238;6.698;2022-12-07T15:37:15;99101.88;;;3.99;100.00
9899;BME280;4988;49.238;6.698;2022-12-07T15:39:41;99094.09;;;3.94;100.00
9899;BME280;4988;49.238;6.698;2022-12-07T15:42:07;99089.78;;;3.89;100.00